sensor_id;sensor_type;location;lat;lon;timestamp;P1;durP1;ratioP1;P2;durP2;ratioP2
62010;SDS011;47967;51.756;10.174;2023-03-01T05:03:11;8.68;;;4.47;;
62010;SDS011;47967;51.756;10.174;2023-03-01T05:07:17;7.72;;;4.18;;
62010;SDS011;47967;51.756;10.174;2023-03-01T05:11:20;9.52;;;5.18;;
62010;SDS011;47967;51.756;10.174;2023-03-01T05:15:23;12.73;;;5.45;;
62010;SDS011;47967;51.756;10.174;2023-03-01T05:19:28;12.02;;;5.05;;
62010;SDS011;47967;51.756;10.174;2023-03-01T05:23:32;13.63;;;6.57;;
62010;SDS011;47967;51.756;10.174;2023-03-01T05:27:35;23.85;;;9.57;;
62010;SDS011;47967;51.756;10.174;2023-03-01T05:31:38;17.70;;;7.40;;
62010;SDS011;47967;51.756;10.174;2023-03-01T05:35:43;17.88;;;7.97;;
62010;SDS011;47967;51.756;10.174;2023-03-01T05:39:46;11.10;;;5.50;;
62010;SDS011;47967;51.756;10.174;2023-03-01T05:43:51;29.00;;;14.63;;
62010;SDS011;47967;51.756;10.174;2023-03-01T05:47:54;13.60;;;7.68;;
62010;SDS011;47967;51.756;10.174;2023-03-01T05:51:58;11.25;;;5.38;;
62010;SDS011;47967;51.756;10.174;2023-03-01T05:56:02;12.10;;;6.50;;
62010;SDS011;47967;51.756;10.174;2023-03-01T06:00:05;14.68;;;6.60;;
62010;SDS011;47967;51.756;10.174;2023-03-01T06:04:12;18.42;;;6.95;;
62010;SDS011;47967;51.756;10.174;2023-03-01T06:08:16;14.25;;;6.45;;
62010;SDS011;47967;51.756;10.174;2023-03-01T06:12:20;17.15;;;6.40;;
62010;SDS011;47967;51.756;10.174;2023-03-01T06:16:23;10.90;;;5.78;;
62010;SDS011;47967;51.756;10.174;2023-03-01T06:20:26;9.15;;;4.95;;
62010;SDS011;47967;51.756;10.174;2023-03-01T06:24:32;12.57;;;6.03;;
62010;SDS011;47967;51.756;10.174;2023-03-01T06:28:34;13.13;;;5.85;;
62010;SDS011;47967;51.756;10.174;2023-03-01T06:32:37;10.93;;;4.68;;
62010;SDS011;47967;51.756;10.174;2023-03-01T06:36:43;11.52;;;5.30;;
62010;SDS011;47967;51.756;10.174;2023-03-01T06:40:46;12.55;;;6.07;;
62010;SDS011;47967;51.756;10.174;2023-03-01T06:44:54;15.23;;;7.07;;
62010;SDS011;47967;51.756;10.174;2023-03-01T06:48:56;14.27;;;5.97;;
62010;SDS011;47967;51.756;10.174;2023-03-01T06:52:59;16.30;;;5.18;;
62010;SDS011;47967;51.756;10.174;2023-03-01T06:57:03;15.55;;;4.93;;
62010;SDS011;47967;51.756;10.174;2023-03-01T07:01:06;17.65;;;7.15;;
62010;SDS011;47967;51.756;10.174;2023-03-01T07:09:11;11.43;;;5.40;;
62010;SDS011;47967;51.756;10.174;2023-03-01T07:13:15;12.63;;;6.05;;
62010;SDS011;47967;51.756;10.174;2023-03-01T07:17:17;14.50;;;5.90;;
62010;SDS011;47967;51.756;10.174;2023-03-01T07:21:20;13.93;;;6.88;;
62010;SDS011;47967;51.756;10.174;2023-03-01T07:25:23;16.60;;;7.20;;
62010;SDS011;47967;51.756;10.174;2023-03-01T07:29:27;14.10;;;6.55;;
62010;SDS011;47967;51.756;10.174;2023-03-01T07:33:30;16.23;;;6.65;;
62010;SDS011;47967;51.756;10.174;2023-03-01T07:37:33;19.63;;;6.72;;
62010;SDS011;47967;51.756;10.174;2023-03-01T07:41:35;13.00;;;7.00;;
62010;SDS011;47967;51.756;10.174;2023-03-01T07:45:40;14.88;;;6.60;;
62010;SDS011;47967;51.756;10.174;2023-03-01T07:49:42;15.40;;;6.00;;
62010;SDS011;47967;51.756;10.174;2023-03-01T07:53:45;16.03;;;7.33;;
62010;SDS011;47967;51.756;10.174;2023-03-01T07:57:48;20.77;;;7.03;;
62010;SDS011;47967;51.756;10.174;2023-03-01T08:01:52;14.77;;;6.68;;
62010;SDS011;47967;51.756;10.174;2023-03-01T08:05:54;15.48;;;6.85;;
62010;SDS011;47967;51.756;10.174;2023-03-01T08:09:57;16.92;;;6.63;;
62010;SDS011;47967;51.756;10.174;2023-03-01T08:14:00;12.77;;;6.78;;
62010;SDS011;47967;51.756;10.174;2023-03-01T08:18:04;14.32;;;7.20;;
62010;SDS011;47967;51.756;10.174;2023-03-01T08:22:07;16.92;;;7.55;;
62010;SDS011;47967;51.756;10.174;2023-03-01T08:26:10;15.87;;;6.87;;
62010;SDS011;47967;51.756;10.174;2023-03-01T08:30:15;12.88;;;6.88;;
62010;SDS011;47967;51.756;10.174;2023-03-01T08:34:19;15.02;;;7.80;;
62010;SDS011;47967;51.756;10.174;2023-03-01T08:38:21;13.88;;;6.85;;
62010;SDS011;47967;51.756;10.174;2023-03-01T08:42:24;16.20;;;6.70;;
62010;SDS011;47967;51.756;10.174;2023-03-01T08:46:27;15.80;;;7.00;;
62010;SDS011;47967;51.756;10.174;2023-03-01T08:50:31;13.43;;;7.28;;
62010;SDS011;47967;51.756;10.174;2023-03-01T08:54:34;18.85;;;7.28;;
62010;SDS011;47967;51.756;10.174;2023-03-01T08:58:37;19.48;;;6.75;;
62010;SDS011;47967;51.756;10.174;2023-03-01T09:02:40;15.07;;;5.70;;
62010;SDS011;47967;51.756;10.174;2023-03-01T09:06:44;13.30;;;6.00;;
62010;SDS011;47967;51.756;10.174;2023-03-01T09:10:47;17.67;;;6.15;;
62010;SDS011;47967;51.756;10.174;2023-03-01T09:14:49;13.20;;;5.80;;
62010;SDS011;47967;51.756;10.174;2023-03-01T09:18:52;18.20;;;6.03;;
62010;SDS011;47967;51.756;10.174;2023-03-01T09:22:58;11.60;;;4.90;;
62010;SDS011;47967;51.756;10.174;2023-03-01T09:27:00;10.45;;;5.35;;
62010;SDS011;47967;51.756;10.174;2023-03-01T09:35:07;10.05;;;4.10;;
62010;SDS011;47967;51.756;10.174;2023-03-01T09:39:11;8.43;;;4.00;;
62010;SDS011;47967;51.756;10.174;2023-03-01T09:43:15;12.00;;;4.32;;
62010;SDS011;47967;51.756;10.174;2023-03-01T09:47:24;7.25;;;3.40;;
62010;SDS011;47967;51.756;10.174;2023-03-01T09:51:29;7.93;;;3.53;;
62010;SDS011;47967;51.756;10.174;2023-03-01T09:55:37;6.75;;;3.08;;
62010;SDS011;47967;51.756;10.174;2023-03-01T09:59:48;9.10;;;3.35;;
62010;SDS011;47967;51.756;10.174;2023-03-01T10:04:11;7.40;;;3.78;;
62010;SDS011;47967;51.756;10.174;2023-03-01T10:08:27;9.50;;;3.83;;
62010;SDS011;47967;51.756;10.174;2023-03-01T10:12:39;7.57;;;4.38;;
62010;SDS011;47967;51.756;10.174;2023-03-01T10:16:46;7.78;;;4.47;;
62010;SDS011;47967;51.756;10.174;2023-03-01T10:20:53;8.00;;;4.32;;
62010;SDS011;47967;51.756;10.174;2023-03-01T10:24:58;7.95;;;4.15;;
62010;SDS011;47967;51.756;10.174;2023-03-01T10:29:07;11.15;;;4.00;;
62010;SDS011;47967;51.756;10.174;2023-03-01T10:33:13;8.07;;;4.28;;
62010;SDS011;47967;51.756;10.174;2023-03-01T10:37:21;8.02;;;4.32;;
62010;SDS011;47967;51.756;10.174;2023-03-01T10:41:26;11.00;;;5.10;;
62010;SDS011;47967;51.756;10.174;2023-03-01T10:45:32;12.07;;;5.13;;
62010;SDS011;47967;51.756;10.174;2023-03-01T10:49:37;11.45;;;5.18;;
62010;SDS011;47967;51.756;10.174;2023-03-01T10:53:40;11.07;;;5.50;;
62010;SDS011;47967;51.756;10.174;2023-03-01T10:57:44;10.27;;;4.88;;
62010;SDS011;47967;51.756;10.174;2023-03-01T11:01:49;9.67;;;4.57;;
62010;SDS011;47967;51.756;10.174;2023-03-01T11:06:20;10.68;;;5.20;;
62010;SDS011;47967;51.756;10.174;2023-03-01T11:10:24;10.43;;;5.03;;
62010;SDS011;47967;51.756;10.174;2023-03-01T11:14:29;10.70;;;4.78;;
62010;SDS011;47967;51.756;10.174;2023-03-01T11:18:37;9.70;;;5.00;;
62010;SDS011;47967;51.756;10.174;2023-03-01T11:22:49;8.73;;;5.05;;
62010;SDS011;47967;51.756;10.174;2023-03-01T11:26:55;8.73;;;5.13;;
62010;SDS011;47967;51.756;10.174;2023-03-01T11:31:00;10.45;;;5.32;;
62010;SDS011;47967;51.756;10.174;2023-03-01T11:35:13;11.00;;;4.90;;
62010;SDS011;47967;51.756;10.174;2023-03-01T11:39:22;8.32;;;4.15;;
62010;SDS011;47967;51.756;10.174;2023-03-01T11:43:33;15.13;;;5.55;;
62010;SDS011;47967;51.756;10.174;2023-03-01T11:47:42;9.95;;;4.50;;
62010;SDS011;47967;51.756;10.174;2023-03-01T11:51:57;14.05;;;5.07;;
62010;SDS011;47967;51.756;10.174;2023-03-01T11:56:10;9.85;;;4.45;;
62010;SDS011;47967;51.756;10.174;2023-03-01T12:00:30;12.70;;;5.05;;
62010;SDS011;47967;51.756;10.174;2023-03-01T12:09:45;11.77;;;5.00;;
62010;SDS011;47967;51.756;10.174;2023-03-01T12:13:58;9.73;;;4.80;;
62010;SDS011;47967;51.756;10.174;2023-03-01T12:18:13;10.02;;;4.97;;
62010;SDS011;47967;51.756;10.174;2023-03-01T12:22:38;15.50;;;5.05;;
62010;SDS011;47967;51.756;10.174;2023-03-01T12:26:54;10.18;;;5.35;;
62010;SDS011;47967;51.756;10.174;2023-03-01T12:31:16;12.48;;;5.28;;
62010;SDS011;47967;51.756;10.174;2023-03-01T12:35:47;11.15;;;5.10;;
62010;SDS011;47967;51.756;10.174;2023-03-01T12:44:35;9.38;;;4.43;;
62010;SDS011;47967;51.756;10.174;2023-03-01T12:48:51;9.15;;;5.03;;
62010;SDS011;47967;51.756;10.174;2023-03-01T12:53:04;11.60;;;5.30;;
62010;SDS011;47967;51.756;10.174;2023-03-01T12:57:09;8.10;;;4.60;;
62010;SDS011;47967;51.756;10.174;2023-03-01T13:01:21;9.93;;;4.95;;
62010;SDS011;47967;51.756;10.174;2023-03-01T13:05:33;8.83;;;4.60;;
62010;SDS011;47967;51.756;10.174;2023-03-01T13:09:47;10.23;;;4.93;;
62010;SDS011;47967;51.756;10.174;2023-03-01T13:14:08;9.00;;;4.50;;
62010;SDS011;47967;51.756;10.174;2023-03-01T13:18:39;9.30;;;4.30;;
62010;SDS011;47967;51.756;10.174;2023-03-01T13:22:42;10.95;;;5.03;;
62010;SDS011;47967;51.756;10.174;2023-03-01T13:27:11;7.60;;;4.57;;
62010;SDS011;47967;51.756;10.174;2023-03-01T13:36:07;10.25;;;5.22;;
62010;SDS011;47967;51.756;10.174;2023-03-01T13:44:53;11.98;;;4.55;;
62010;SDS011;47967;51.756;10.174;2023-03-01T13:48:56;12.07;;;3.70;;
62010;SDS011;47967;51.756;10.174;2023-03-01T13:53:01;12.35;;;3.72;;
62010;SDS011;47967;51.756;10.174;2023-03-01T13:57:12;7.05;;;3.92;;
62010;SDS011;47967;51.756;10.174;2023-03-01T14:01:25;6.68;;;3.60;;
62010;SDS011;47967;51.756;10.174;2023-03-01T14:05:29;6.93;;;3.70;;
62010;SDS011;47967;51.756;10.174;2023-03-01T14:09:34;6.45;;;3.53;;
62010;SDS011;47967;51.756;10.174;2023-03-01T14:13:47;11.35;;;3.78;;
62010;SDS011;47967;51.756;10.174;2023-03-01T14:17:58;8.07;;;3.15;;
62010;SDS011;47967;51.756;10.174;2023-03-01T14:22:10;7.40;;;3.50;;
62010;SDS011;47967;51.756;10.174;2023-03-01T14:26:22;7.18;;;3.67;;
62010;SDS011;47967;51.756;10.174;2023-03-01T14:30:26;6.85;;;3.42;;
62010;SDS011;47967;51.756;10.174;2023-03-01T14:34:29;8.95;;;4.32;;
62010;SDS011;47967;51.756;10.174;2023-03-01T14:38:33;9.50;;;3.53;;
62010;SDS011;47967;51.756;10.174;2023-03-01T14:42:38;6.60;;;3.30;;
62010;SDS011;47967;51.756;10.174;2023-03-01T14:46:42;7.53;;;3.40;;
62010;SDS011;47967;51.756;10.174;2023-03-01T14:50:46;7.20;;;3.58;;
62010;SDS011;47967;51.756;10.174;2023-03-01T14:54:50;6.75;;;3.78;;
62010;SDS011;47967;51.756;10.174;2023-03-01T14:58:58;8.35;;;3.63;;
62010;SDS011;47967;51.756;10.174;2023-03-01T15:03:04;7.55;;;3.80;;
62010;SDS011;47967;51.756;10.174;2023-03-01T15:07:11;9.73;;;4.28;;
62010;SDS011;47967;51.756;10.174;2023-03-01T15:11:17;13.43;;;4.18;;
62010;SDS011;47967;51.756;10.174;2023-03-01T15:15:32;8.85;;;3.75;;
62010;SDS011;47967;51.756;10.174;2023-03-01T15:19:36;8.02;;;3.88;;
62010;SDS011;47967;51.756;10.174;2023-03-01T15:23:39;8.97;;;4.30;;
62010;SDS011;47967;51.756;10.174;2023-03-01T15:27:44;7.00;;;4.20;;
62010;SDS011;47967;51.756;10.174;2023-03-01T15:31:56;10.88;;;5.13;;
62010;SDS011;47967;51.756;10.174;2023-03-01T15:36:00;10.30;;;4.68;;
62010;SDS011;47967;51.756;10.174;2023-03-01T15:40:16;9.80;;;4.93;;
62010;SDS011;47967;51.756;10.174;2023-03-01T15:44:25;10.98;;;4.30;;
62010;SDS011;47967;51.756;10.174;2023-03-01T15:48:45;8.40;;;4.03;;
62010;SDS011;47967;51.756;10.174;2023-03-01T15:52:50;8.63;;;4.40;;
62010;SDS011;47967;51.756;10.174;2023-03-01T15:56:53;7.25;;;3.80;;
62010;SDS011;47967;51.756;10.174;2023-03-01T16:00:56;7.53;;;3.90;;
62010;SDS011;47967;51.756;10.174;2023-03-01T16:05:09;7.60;;;3.80;;
62010;SDS011;47967;51.756;10.174;2023-03-01T16:09:20;8.38;;;3.75;;
62010;SDS011;47967;51.756;10.174;2023-03-01T16:13:24;9.45;;;4.25;;
62010;SDS011;47967;51.756;10.174;2023-03-01T16:17:29;9.73;;;3.95;;
62010;SDS011;47967;51.756;10.174;2023-03-01T16:21:33;9.95;;;4.28;;
62010;SDS011;47967;51.756;10.174;2023-03-01T16:25:36;7.63;;;3.78;;
62010;SDS011;47967;51.756;10.174;2023-03-01T16:29:38;7.50;;;4.10;;
62010;SDS011;47967;51.756;10.174;2023-03-01T16:33:41;8.98;;;4.18;;
62010;SDS011;47967;51.756;10.174;2023-03-01T16:37:45;8.67;;;4.67;;
62010;SDS011;47967;51.756;10.174;2023-03-01T16:41:48;10.77;;;4.75;;
62010;SDS011;47967;51.756;10.174;2023-03-01T16:45:50;10.27;;;4.65;;
62010;SDS011;47967;51.756;10.174;2023-03-01T16:49:53;8.53;;;4.70;;
62010;SDS011;47967;51.756;10.174;2023-03-01T16:53:57;10.98;;;4.57;;
62010;SDS011;47967;51.756;10.174;2023-03-01T16:58:00;9.18;;;4.80;;
62010;SDS011;47967;51.756;10.174;2023-03-01T17:02:03;9.68;;;5.25;;
62010;SDS011;47967;51.756;10.174;2023-03-01T17:06:08;11.52;;;5.15;;
62010;SDS011;47967;51.756;10.174;2023-03-01T17:10:13;13.23;;;5.50;;
62010;SDS011;47967;51.756;10.174;2023-03-01T17:14:16;11.38;;;5.13;;
62010;SDS011;47967;51.756;10.174;2023-03-01T17:18:18;9.13;;;4.30;;
62010;SDS011;47967;51.756;10.174;2023-03-01T17:22:21;10.70;;;5.18;;
62010;SDS011;47967;51.756;10.174;2023-03-01T17:26:25;11.27;;;4.40;;
62010;SDS011;47967;51.756;10.174;2023-03-01T17:30:29;10.77;;;4.63;;
62010;SDS011;47967;51.756;10.174;2023-03-01T17:34:32;9.07;;;4.37;;
62010;SDS011;47967;51.756;10.174;2023-03-01T17:38:35;9.43;;;4.47;;
62010;SDS011;47967;51.756;10.174;2023-03-01T17:42:39;10.77;;;4.93;;
62010;SDS011;47967;51.756;10.174;2023-03-01T17:46:42;19.58;;;7.60;;
62010;SDS011;47967;51.756;10.174;2023-03-01T17:50:44;13.47;;;6.53;;
62010;SDS011;47967;51.756;10.174;2023-03-01T17:54:47;21.10;;;7.85;;
62010;SDS011;47967;51.756;10.174;2023-03-01T17:58:51;16.30;;;7.18;;
62010;SDS011;47967;51.756;10.174;2023-03-01T18:02:54;12.35;;;6.10;;
62010;SDS011;47967;51.756;10.174;2023-03-01T18:06:57;19.17;;;8.67;;
62010;SDS011;47967;51.756;10.174;2023-03-01T18:11:00;14.23;;;7.60;;
62010;SDS011;47967;51.756;10.174;2023-03-01T18:15:04;14.20;;;6.67;;
62010;SDS011;47967;51.756;10.174;2023-03-01T18:19:09;17.02;;;7.13;;
62010;SDS011;47967;51.756;10.174;2023-03-01T18:23:12;15.50;;;8.73;;
62010;SDS011;47967;51.756;10.174;2023-03-01T18:27:14;15.77;;;8.37;;
62010;SDS011;47967;51.756;10.174;2023-03-01T18:31:19;17.95;;;9.25;;
62010;SDS011;47967;51.756;10.174;2023-03-01T18:35:23;17.95;;;10.38;;
62010;SDS011;47967;51.756;10.174;2023-03-01T18:39:26;23.00;;;11.53;;
62010;SDS011;47967;51.756;10.174;2023-03-01T18:43:28;22.83;;;11.68;;
62010;SDS011;47967;51.756;10.174;2023-03-01T18:47:34;18.20;;;8.98;;
62010;SDS011;47967;51.756;10.174;2023-03-01T18:51:36;12.07;;;6.80;;
62010;SDS011;47967;51.756;10.174;2023-03-01T18:55:39;15.45;;;7.10;;
62010;SDS011;47967;51.756;10.174;2023-03-01T18:59:42;15.57;;;7.17;;
62010;SDS011;47967;51.756;10.174;2023-03-01T19:03:46;19.30;;;9.87;;
62010;SDS011;47967;51.756;10.174;2023-03-01T19:07:49;22.88;;;10.85;;
62010;SDS011;47967;51.756;10.174;2023-03-01T19:11:52;20.55;;;8.25;;
62010;SDS011;47967;51.756;10.174;2023-03-01T19:16:02;22.23;;;9.23;;
62010;SDS011;47967;51.756;10.174;2023-03-01T19:20:08;22.58;;;9.45;;
62010;SDS011;47967;51.756;10.174;2023-03-01T19:24:12;18.98;;;8.95;;
62010;SDS011;47967;51.756;10.174;2023-03-01T19:28:15;22.60;;;11.17;;
62010;SDS011;47967;51.756;10.174;2023-03-01T19:32:17;16.60;;;8.33;;
62010;SDS011;47967;51.756;10.174;2023-03-01T19:36:21;29.37;;;10.33;;
62010;SDS011;47967;51.756;10.174;2023-03-01T19:40:34;18.17;;;9.43;;
62010;SDS011;47967;51.756;10.174;2023-03-01T19:44:37;18.80;;;9.65;;
62010;SDS011;47967;51.756;10.174;2023-03-01T19:48:40;19.27;;;8.80;;
62010;SDS011;47967;51.756;10.174;2023-03-01T19:52:45;16.50;;;8.75;;
62010;SDS011;47967;51.756;10.174;2023-03-01T19:56:48;20.00;;;9.68;;
62010;SDS011;47967;51.756;10.174;2023-03-01T20:00:52;17.80;;;9.32;;
62010;SDS011;47967;51.756;10.174;2023-03-01T20:04:58;18.27;;;10.05;;
62010;SDS011;47967;51.756;10.174;2023-03-01T20:09:02;22.47;;;10.27;;
62010;SDS011;47967;51.756;10.174;2023-03-01T20:13:21;22.23;;;10.07;;
62010;SDS011;47967;51.756;10.174;2023-03-01T20:17:23;14.33;;;6.50;;
62010;SDS011;47967;51.756;10.174;2023-03-01T20:21:26;9.77;;;5.37;;
62010;SDS011;47967;51.756;10.174;2023-03-01T20:25:30;14.93;;;6.73;;
62010;SDS011;47967;51.756;10.174;2023-03-01T20:29:32;11.88;;;5.70;;
62010;SDS011;47967;51.756;10.174;2023-03-01T20:33:35;9.95;;;5.45;;
62010;SDS011;47967;51.756;10.174;2023-03-01T20:37:38;13.05;;;5.45;;
62010;SDS011;47967;51.756;10.174;2023-03-01T20:41:42;13.30;;;6.47;;
62010;SDS011;47967;51.756;10.174;2023-03-01T20:45:44;16.33;;;8.65;;
62010;SDS011;47967;51.756;10.174;2023-03-01T20:49:48;12.10;;;6.73;;
62010;SDS011;47967;51.756;10.174;2023-03-01T20:53:51;16.40;;;8.35;;
62010;SDS011;47967;51.756;10.174;2023-03-01T20:57:55;19.70;;;9.85;;
62010;SDS011;47967;51.756;10.174;2023-03-01T21:01:58;19.85;;;10.45;;
62010;SDS011;47967;51.756;10.174;2023-03-01T21:06:01;23.50;;;12.63;;
62010;SDS011;47967;51.756;10.174;2023-03-01T21:10:06;21.65;;;10.70;;
62010;SDS011;47967;51.756;10.174;2023-03-01T21:14:11;21.98;;;10.73;;
62010;SDS011;47967;51.756;10.174;2023-03-01T21:18:14;19.42;;;10.43;;
62010;SDS011;47967;51.756;10.174;2023-03-01T21:22:16;24.60;;;11.27;;
62010;SDS011;47967;51.756;10.174;2023-03-01T21:26:20;20.17;;;11.23;;
62010;SDS011;47967;51.756;10.174;2023-03-01T21:30:25;17.77;;;9.32;;
62010;SDS011;47967;51.756;10.174;2023-03-01T21:34:28;20.98;;;8.95;;
62010;SDS011;47967;51.756;10.174;2023-03-01T21:38:31;19.00;;;9.43;;
62010;SDS011;47967;51.756;10.174;2023-03-01T21:42:36;18.23;;;9.85;;
62010;SDS011;47967;51.756;10.174;2023-03-01T21:46:40;19.27;;;10.35;;
62010;SDS011;47967;51.756;10.174;2023-03-01T21:50:43;20.52;;;10.40;;
62010;SDS011;47967;51.756;10.174;2023-03-01T21:54:49;15.93;;;7.63;;
62010;SDS011;47967;51.756;10.174;2023-03-01T21:58:52;17.45;;;8.82;;
